createdAt,value
2018-07-10T00:02:36.540Z,100491.77
2018-07-10T00:05:50.184Z,100488.19
2018-07-10T00:10:35.025Z,100492.30
2018-07-10T00:13:03.538Z,100485.82
2018-07-10T00:15:31.929Z,100481.28
2018-07-10T00:18:00.385Z,100479.02
2018-07-10T00:20:28.855Z,100476.37
2018-07-10T00:22:57.498Z,100473.70
2018-07-10T00:25:25.897Z,100487.94
2018-07-10T00:27:54.428Z,100480.19
2018-07-10T00:30:22.957Z,100490.31
2018-07-10T00:32:51.488Z,100489.31
2018-07-10T00:35:19.992Z,100477.33
2018-07-10T00:37:59.782Z,100480.78
2018-07-10T00:40:28.206Z,100482.11
2018-07-10T00:42:56.605Z,100480.78
2018-07-10T00:45:25.084Z,100483.91
2018-07-10T00:47:53.477Z,100483.44
2018-07-10T00:50:21.881Z,100497.10
2018-07-10T00:52:50.384Z,100477.78
2018-07-10T00:55:18.819Z,100495.87
2018-07-10T00:57:47.320Z,100484.98
2018-07-10T01:00:27.840Z,100496.84
2018-07-10T01:02:56.350Z,100483.42
2018-07-10T01:05:24.797Z,100484.23
2018-07-10T01:07:53.257Z,100485.66
2018-07-10T01:10:21.673Z,100484.90
2018-07-10T01:12:50.133Z,100475.13
2018-07-10T01:15:19.210Z,100481.66
2018-07-10T01:17:47.993Z,100483.33
2018-07-10T01:20:17.367Z,100491.03
2018-07-10T01:22:45.957Z,100479.05
2018-07-10T01:25:14.752Z,100467.57
2018-07-10T01:27:43.293Z,100468.08
2018-07-10T01:30:11.765Z,100461.54
2018-07-10T01:32:41.640Z,100461.26
2018-07-10T01:35:10.046Z,100464.27
2018-07-10T01:37:38.580Z,100464.52
2018-07-10T01:40:07.085Z,100469.47
2018-07-10T01:42:35.543Z,100467.88
2018-07-10T01:45:04.242Z,100454.21
2018-07-10T01:47:32.703Z,100465.68
2018-07-10T01:50:01.179Z,100466.25
2018-07-10T01:52:29.686Z,100466.83
2018-07-10T01:54:58.253Z,100466.58
2018-07-10T01:57:27.176Z,100464.42
2018-07-10T01:59:56.018Z,100474.83
2018-07-10T02:02:25.117Z,100465.86
2018-07-10T02:04:55.257Z,100472.98
2018-07-10T02:07:24.912Z,100476.51
2018-07-10T02:09:53.449Z,100464.55
2018-07-10T02:12:22.013Z,100468.34
2018-07-10T02:14:50.521Z,100461.25
2018-07-10T02:17:19.079Z,100468.08
2018-07-10T02:19:47.645Z,100463.73
2018-07-10T02:22:16.981Z,100462.08
2018-07-10T02:24:45.860Z,100465.08
2018-07-10T02:27:15.480Z,100456.37
2018-07-10T02:29:43.973Z,100456.68
2018-07-10T02:32:12.462Z,100462.97
2018-07-10T02:34:41.007Z,100459.99
2018-07-10T02:37:09.655Z,100468.15
2018-07-10T02:39:38.202Z,100463.22
2018-07-10T02:42:06.798Z,100460.53
2018-07-10T02:44:35.623Z,100464.88
2018-07-10T02:47:04.122Z,100458.89
2018-07-10T02:49:32.650Z,100460.28
2018-07-10T02:52:03.293Z,100464.05
2018-07-10T02:54:34.584Z,100470.10
2018-07-10T02:57:05.300Z,100470.09
2018-07-10T02:59:36.958Z,100454.81
2018-07-10T03:02:06.861Z,100454.50
2018-07-10T03:04:36.721Z,100455.61
2018-07-10T03:07:05.730Z,100462.44
2018-07-10T03:09:34.222Z,100463.28
2018-07-10T03:12:04.190Z,100470.94
2018-07-10T03:14:32.670Z,100465.73
2018-07-10T03:17:01.441Z,100466.55
2018-07-10T03:19:30.284Z,100465.47
2018-07-10T03:21:58.732Z,100462.99
2018-07-10T03:24:27.205Z,100457.28
2018-07-10T03:26:55.733Z,100459.44
2018-07-10T03:29:24.549Z,100464.94
2018-07-10T03:31:53.993Z,100464.36
2018-07-10T03:34:22.628Z,100469.04
2018-07-10T03:36:51.384Z,100465.48
2018-07-10T03:39:19.868Z,100470.40
2018-07-10T03:41:48.341Z,100458.39
2018-07-10T03:44:18.097Z,100462.20
2018-07-10T03:46:46.553Z,100469.83
2018-07-10T03:49:15.068Z,100466.59
2018-07-10T03:51:43.561Z,100463.31
2018-07-10T03:54:12.087Z,100464.11
2018-07-10T03:56:40.578Z,100470.14
2018-07-10T03:59:09.045Z,100469.89
2018-07-10T04:01:38.252Z,100472.90
2018-07-10T04:04:06.727Z,100471.25
2018-07-10T04:06:35.522Z,100469.05
2018-07-10T04:09:06.608Z,100470.96
2018-07-10T04:11:35.185Z,100474.52
2018-07-10T04:14:04.589Z,100477.52
2018-07-10T04:16:33.053Z,100485.71
2018-07-10T04:19:01.505Z,100485.73
2018-07-10T04:21:33.293Z,100484.36
2018-07-10T04:24:12.237Z,100479.68
2018-07-10T04:27:15.202Z,100474.45
2018-07-10T04:29:53.723Z,100480.06
2018-07-10T04:32:22.550Z,100482.72
2018-07-10T04:34:51.028Z,100475.08
2018-07-10T04:37:19.521Z,100481.32
2018-07-10T04:39:47.990Z,100474.23
2018-07-10T04:42:36.104Z,100473.16
2018-07-10T04:45:11.419Z,100477.78
2018-07-10T04:47:59.801Z,100474.53
2018-07-10T04:50:46.962Z,100471.55
2018-07-10T04:53:23.846Z,100472.12
2018-07-10T04:55:52.446Z,100467.17
2018-07-10T04:58:22.058Z,100466.38
2018-07-10T05:01:01.819Z,100464.77
2018-07-10T05:03:31.221Z,100458.80
2018-07-10T05:06:04.167Z,100466.98
2018-07-10T05:08:32.674Z,100464.02
2018-07-10T05:11:01.369Z,100465.64
2018-07-10T05:13:29.925Z,100455.52
2018-07-10T05:16:03.350Z,100457.76
2018-07-10T05:18:32.487Z,100462.40
2018-07-10T05:21:03.590Z,100457.50
2018-07-10T05:23:32.093Z,100461.84
2018-07-10T05:26:00.572Z,100453.13
2018-07-10T05:28:29.129Z,100457.55
2018-07-10T05:31:01.431Z,100452.38
2018-07-10T05:33:30.185Z,100447.14
2018-07-10T05:35:59.083Z,100452.66
2018-07-10T05:38:36.754Z,100445.57
2018-07-10T05:41:05.445Z,100451.28
2018-07-10T05:43:38.853Z,100449.39
2018-07-10T05:46:07.373Z,100447.78
2018-07-10T05:48:36.545Z,100450.77
2018-07-10T05:51:05.009Z,100446.69
2018-07-10T05:53:33.493Z,100449.66
2018-07-10T05:56:02.097Z,100442.56
2018-07-10T05:58:30.656Z,100451.31
2018-07-10T06:00:59.112Z,100446.66
2018-07-10T06:03:27.542Z,100438.47
2018-07-10T06:05:56.087Z,100448.31
2018-07-10T06:08:24.589Z,100440.66
2018-07-10T06:10:53.110Z,100441.96
2018-07-10T06:13:21.553Z,100440.64
2018-07-10T06:15:50.058Z,100441.38
2018-07-10T06:18:18.528Z,100438.11
2018-07-10T06:20:47.069Z,100441.69
2018-07-10T06:23:15.556Z,100435.66
2018-07-10T06:25:44.045Z,100437.30
2018-07-10T06:28:16.082Z,100428.52
2018-07-10T06:30:44.641Z,100422.52
2018-07-10T06:33:21.643Z,100423.55
2018-07-10T06:35:54.546Z,100418.94
2018-07-10T06:38:23.055Z,100416.27
2018-07-10T06:40:51.956Z,100410.52
2018-07-10T06:43:26.198Z,100410.78
2018-07-10T06:45:54.865Z,100403.12
2018-07-10T06:48:23.952Z,100409.13
2018-07-10T06:50:52.492Z,100402.20
2018-07-10T06:53:24.259Z,100403.27
2018-07-10T06:55:57.449Z,100400.13
2018-07-10T06:58:26.453Z,100400.61
2018-07-10T07:00:56.200Z,100400.73
2018-07-10T07:03:25.991Z,100395.19
2018-07-10T07:05:55.019Z,100398.84
2018-07-10T07:08:24.760Z,100397.63
2018-07-10T07:10:53.279Z,100394.19
2018-07-10T07:13:21.814Z,100394.69
2018-07-10T07:15:50.301Z,100399.28
2018-07-10T07:18:18.828Z,100397.05
2018-07-10T07:20:47.297Z,100399.14
2018-07-10T07:23:15.813Z,100401.52
2018-07-10T07:25:45.024Z,100400.68
2018-07-10T07:28:13.561Z,100392.61
2018-07-10T07:30:42.057Z,100396.77
2018-07-10T07:33:10.562Z,100389.67
2018-07-10T07:35:39.055Z,100398.22
2018-07-10T07:38:07.618Z,100399.00
2018-07-10T07:40:36.245Z,100385.97
2018-07-10T07:43:06.801Z,100402.16
2018-07-10T07:45:36.330Z,100402.51
2018-07-10T07:48:04.908Z,100399.00
2018-07-10T07:50:33.507Z,100397.75
2018-07-10T07:53:02.253Z,100389.54
2018-07-10T07:55:32.105Z,100391.22
2018-07-10T07:58:00.617Z,100394.62
2018-07-10T08:00:29.107Z,100391.22
2018-07-10T08:02:58.801Z,100386.18
2018-07-10T08:05:27.238Z,100396.13
2018-07-10T08:07:55.708Z,100386.95
2018-07-10T08:10:24.402Z,100380.92
2018-07-10T08:12:53.229Z,100385.70
2018-07-10T08:15:21.745Z,100380.87
2018-07-10T08:17:50.252Z,100394.58
2018-07-10T08:20:19.049Z,100387.89
2018-07-10T08:22:47.526Z,100383.74
2018-07-10T08:25:19.634Z,100375.56
2018-07-10T08:27:50.965Z,100372.47
2018-07-10T08:30:19.658Z,100365.83
2018-07-10T08:32:49.832Z,100371.03
2018-07-10T08:35:18.489Z,100363.34
2018-07-10T08:37:47.012Z,100361.05
2018-07-10T08:40:15.471Z,100353.22
2018-07-10T08:42:43.940Z,100349.27
2018-07-10T08:45:13.368Z,100346.67
2018-07-10T08:47:42.393Z,100341.38
2018-07-10T08:50:11.526Z,100343.00
2018-07-10T08:52:40.069Z,100330.30
2018-07-10T08:55:08.526Z,100327.22
2018-07-10T08:57:36.986Z,100322.95
2018-07-10T09:00:05.564Z,100326.25
2018-07-10T09:02:34.051Z,100324.93
2018-07-10T09:05:02.537Z,100324.52
2018-07-10T09:07:30.994Z,100326.13
2018-07-10T09:09:59.470Z,100325.80
2018-07-10T09:12:27.941Z,100329.11
2018-07-10T09:14:56.509Z,100331.48
2018-07-10T09:17:25.220Z,100325.81
2018-07-10T09:19:53.666Z,100321.05
2018-07-10T09:22:22.152Z,100321.05
2018-07-10T09:24:54.006Z,100319.48
2018-07-10T09:27:23.585Z,100326.55
2018-07-10T09:29:52.165Z,100314.52
2018-07-10T09:32:26.647Z,100325.02
2018-07-10T09:34:56.887Z,100322.64
2018-07-10T09:37:30.696Z,100321.84
2018-07-10T09:40:04.605Z,100335.39
2018-07-10T09:42:35.829Z,100325.02
2018-07-10T09:45:05.205Z,100328.36
2018-07-10T09:47:33.732Z,100321.73
2018-07-10T09:50:02.481Z,100318.42
2018-07-10T09:52:31.046Z,100323.67
2018-07-10T09:54:59.765Z,100316.20
2018-07-10T09:57:40.568Z,100314.57
2018-07-10T10:00:09.079Z,100325.84
2018-07-10T10:02:38.428Z,100317.72
2018-07-10T10:05:07.677Z,100320.43
2018-07-10T10:07:36.585Z,100314.09
2018-07-10T10:10:05.481Z,100323.45
2018-07-10T10:12:34.423Z,100316.05
2018-07-10T10:15:02.965Z,100309.83
2018-07-10T10:17:34.416Z,100316.48
2018-07-10T10:20:04.134Z,100311.25
2018-07-10T10:22:33.607Z,100321.50
2018-07-10T10:25:03.528Z,100316.84
2018-07-10T10:27:32.712Z,100315.67
2018-07-10T10:30:02.048Z,100316.49
2018-07-10T10:32:30.969Z,100320.39
2018-07-10T10:34:59.861Z,100310.97
2018-07-10T10:37:28.596Z,100318.05
2018-07-10T10:39:57.625Z,100310.12
2018-07-10T10:42:27.753Z,100315.09
2018-07-10T10:44:59.702Z,100305.45
2018-07-10T10:47:33.305Z,100301.39
2018-07-10T10:50:02.783Z,100303.92
2018-07-10T10:52:31.434Z,100300.09
2018-07-10T10:55:02.862Z,100300.23
2018-07-10T10:57:39.955Z,100295.48
2018-07-10T11:00:08.798Z,100297.28
2018-07-10T11:02:37.347Z,100296.39
2018-07-10T11:05:05.830Z,100290.59
2018-07-10T11:07:40.268Z,100291.57
2018-07-10T11:10:08.766Z,100294.66
2018-07-10T11:12:37.235Z,100300.73
2018-07-10T11:15:06.498Z,100294.30
2018-07-10T11:17:45.038Z,100295.72
2018-07-10T11:20:22.474Z,100290.28
2018-07-10T11:23:01.799Z,100301.56
2018-07-10T11:25:33.637Z,100299.88
2018-07-10T11:28:05.430Z,100291.02
2018-07-10T11:30:34.269Z,100293.78
2018-07-10T11:33:04.162Z,100293.33
2018-07-10T11:35:33.377Z,100282.66
2018-07-10T11:38:10.441Z,100287.51
2018-07-10T11:40:44.337Z,100289.20
2018-07-10T11:43:19.204Z,100287.64
2018-07-10T11:45:47.688Z,100281.55
2018-07-10T11:48:16.173Z,100284.91
2018-07-10T11:50:44.593Z,100286.86
2018-07-10T11:53:13.109Z,100268.92
2018-07-10T11:55:41.597Z,100284.17
2018-07-10T11:58:10.294Z,100282.56
2018-07-10T12:00:39.108Z,100268.30
2018-07-10T12:03:08.125Z,100272.89
2018-07-10T12:05:38.384Z,100269.97
2018-07-10T12:08:06.930Z,100266.99
2018-07-10T12:10:36.428Z,100268.13
2018-07-10T12:13:04.915Z,100269.67
2018-07-10T12:15:33.402Z,100269.23
2018-07-10T12:18:03.904Z,100262.06
2018-07-10T12:20:37.746Z,100267.63
2018-07-10T12:23:08.261Z,100270.30
2018-07-10T12:25:39.573Z,100260.74
2018-07-10T12:28:09.469Z,100265.06
2018-07-10T12:30:38.045Z,100265.98
2018-07-10T12:33:06.885Z,100263.13
2018-07-10T12:35:35.384Z,100264.40
2018-07-10T12:38:03.922Z,100267.48
2018-07-10T12:40:32.530Z,100255.03
2018-07-10T12:43:01.010Z,100260.76
2018-07-10T12:45:29.507Z,100258.02
2018-07-10T12:47:59.931Z,100261.61
2018-07-10T12:50:28.606Z,100253.59
2018-07-10T12:52:57.193Z,100264.67
2018-07-10T12:55:26.998Z,100258.33
2018-07-10T12:57:56.344Z,100265.78
2018-07-10T13:00:26.596Z,100259.66
2018-07-10T13:02:55.138Z,100259.06
2018-07-10T13:05:27.408Z,100253.74
2018-07-10T13:07:55.893Z,100236.62
2018-07-10T13:10:24.509Z,100249.66
2018-07-10T13:12:53.081Z,100239.30
2018-07-10T13:15:21.541Z,100261.59
2018-07-10T13:17:51.264Z,100235.59
2018-07-10T13:20:20.170Z,100246.94
2018-07-10T13:22:48.647Z,100248.17
2018-07-10T13:25:21.651Z,100249.52
2018-07-10T13:27:50.595Z,100240.39
2018-07-10T13:30:19.234Z,100246.46
2018-07-10T13:32:48.129Z,100247.80
2018-07-10T13:35:16.645Z,100252.73
2018-07-10T13:37:45.766Z,100252.40
2018-07-10T13:40:14.596Z,100250.03
2018-07-10T13:42:54.626Z,100246.19
2018-07-10T13:45:25.281Z,100240.05
2018-07-10T13:47:53.862Z,100233.26
2018-07-10T13:50:27.389Z,100233.07
2018-07-10T13:52:56.760Z,100226.50
2018-07-10T13:55:25.553Z,100220.45
2018-07-10T13:57:57.799Z,100210.77
2018-07-10T14:00:26.376Z,100213.73
2018-07-10T14:02:55.393Z,100221.23
2018-07-10T14:05:24.928Z,100212.75
2018-07-10T14:07:53.882Z,100204.45
2018-07-10T14:10:22.969Z,100205.55
2018-07-10T14:12:51.438Z,100194.75
2018-07-10T14:15:19.945Z,100196.02
2018-07-10T14:17:48.705Z,100176.75
2018-07-10T14:20:17.205Z,100186.34
2018-07-10T14:22:45.894Z,100162.75
2018-07-10T14:25:14.333Z,100172.03
2018-07-10T14:27:42.789Z,100186.37
2018-07-10T14:30:11.382Z,100161.11
2018-07-10T14:32:39.828Z,100176.76
2018-07-10T14:35:08.314Z,100182.59
2018-07-10T14:37:37.382Z,100176.66
2018-07-10T14:40:05.914Z,100166.70
2018-07-10T14:42:34.414Z,100168.80
2018-07-10T14:45:06.653Z,100182.13
2018-07-10T14:47:37.761Z,100172.30
2018-07-10T14:50:06.353Z,100160.06
2018-07-10T14:52:34.930Z,100167.75
2018-07-10T14:55:03.472Z,100169.17
2018-07-10T14:57:32.016Z,100157.42
2018-07-10T15:00:00.804Z,100144.45
2018-07-10T15:02:29.352Z,100136.39
2018-07-10T15:04:57.872Z,100143.68
2018-07-10T15:07:26.349Z,100148.36
2018-07-10T15:09:54.797Z,100147.42
2018-07-10T15:12:23.285Z,100123.59
2018-07-10T15:14:52.018Z,100137.67
2018-07-10T15:17:25.920Z,100128.33
2018-07-10T15:19:54.528Z,100137.98
2018-07-10T15:22:23.050Z,100148.30
2018-07-10T15:24:51.545Z,100143.07
2018-07-10T15:27:20.011Z,100135.72
2018-07-10T15:29:48.588Z,100132.45
2018-07-10T15:32:17.089Z,100121.53
2018-07-10T15:34:45.602Z,100128.84
2018-07-10T15:37:14.150Z,100126.77
2018-07-10T15:39:42.630Z,100118.21
2018-07-10T15:42:11.228Z,100124.47
2018-07-10T15:44:39.721Z,100123.33
2018-07-10T15:47:08.213Z,100125.66
2018-07-10T15:49:36.720Z,100118.66
2018-07-10T15:52:05.673Z,100109.72
2018-07-10T15:54:34.183Z,100124.58
2018-07-10T15:57:02.667Z,100116.41
2018-07-10T15:59:31.137Z,100114.33
2018-07-10T16:01:59.641Z,100126.17
2018-07-10T16:04:28.132Z,100127.73
2018-07-10T16:06:56.676Z,100127.30
2018-07-10T16:09:25.157Z,100121.74
2018-07-10T16:11:58.993Z,100124.61
2018-07-10T16:14:28.561Z,100124.96
2018-07-10T16:16:57.554Z,100104.34
2018-07-10T16:19:30.416Z,100117.92
2018-07-10T16:22:03.498Z,100111.02
2018-07-10T16:24:35.422Z,100120.84
2018-07-10T16:27:03.921Z,100107.78
2018-07-10T16:29:32.370Z,100106.34
2018-07-10T16:32:02.500Z,100106.53
2018-07-10T16:34:31.018Z,100108.61
2018-07-10T16:36:59.503Z,100091.46
2018-07-10T16:39:27.995Z,100098.97
2018-07-10T16:42:01.756Z,100106.78
2018-07-10T16:44:30.294Z,100102.00
2018-07-10T16:47:06.012Z,100106.27
2018-07-10T16:49:39.738Z,100106.83
2018-07-10T16:52:13.433Z,100099.50
2018-07-10T16:54:42.006Z,100101.77
2018-07-10T16:57:10.546Z,100094.77
2018-07-10T16:59:39.885Z,100093.23
2018-07-10T17:02:08.425Z,100079.98
2018-07-10T17:04:37.601Z,100057.16
2018-07-10T17:07:06.131Z,100065.86
2018-07-10T17:09:34.804Z,100080.34
2018-07-10T17:12:03.366Z,100078.20
2018-07-10T17:14:31.889Z,100092.95
2018-07-10T17:17:00.434Z,100093.23
2018-07-10T17:19:29.718Z,100092.14
2018-07-10T17:21:58.250Z,100089.64
2018-07-10T17:24:26.809Z,100081.59
2018-07-10T17:26:55.437Z,100085.06
2018-07-10T17:29:24.032Z,100076.84
2018-07-10T17:31:52.589Z,100078.17
2018-07-10T17:34:21.190Z,100075.67
2018-07-10T17:36:50.181Z,100068.44
2018-07-10T17:39:19.025Z,100074.05
2018-07-10T17:41:47.858Z,100074.42
2018-07-10T17:44:16.474Z,100055.42
2018-07-10T17:46:44.979Z,100056.91
2018-07-10T17:49:13.604Z,100047.86
2018-07-10T17:51:42.317Z,100053.43
2018-07-10T17:54:10.803Z,100049.50
2018-07-10T17:56:39.387Z,100020.98
2018-07-10T17:59:08.693Z,100047.89
2018-07-10T18:01:37.880Z,100037.72
2018-07-10T18:04:06.989Z,100044.24
2018-07-10T18:06:35.872Z,100051.45
2018-07-10T18:09:05.505Z,100047.30
2018-07-10T18:11:33.991Z,100061.01
2018-07-10T18:14:02.468Z,100063.62
2018-07-10T18:16:33.778Z,100059.80
2018-07-10T18:19:03.020Z,100067.83
2018-07-10T18:21:31.985Z,100059.68
2018-07-10T18:24:00.645Z,100062.07
2018-07-10T18:26:29.162Z,100057.30
2018-07-10T18:28:57.713Z,100046.53
2018-07-10T18:31:27.122Z,100046.80
2018-07-10T18:33:55.770Z,100045.39
2018-07-10T18:36:24.323Z,100033.79
2018-07-10T18:38:52.798Z,100037.34
2018-07-10T18:41:21.321Z,100024.81
2018-07-10T18:43:49.853Z,100046.49
2018-07-10T18:46:18.364Z,100032.28
2018-07-10T18:48:46.969Z,100048.30
2018-07-10T18:51:15.455Z,100051.97
2018-07-10T18:53:44.074Z,100051.08
2018-07-10T18:56:12.658Z,100041.45
2018-07-10T18:58:49.528Z,100040.09
2018-07-10T19:01:58.338Z,100043.61
2018-07-10T19:05:07.372Z,100039.27
2018-07-10T19:07:38.437Z,100048.61
2018-07-10T19:10:07.284Z,100052.48
2018-07-10T19:12:36.427Z,100055.02
2018-07-10T19:15:05.226Z,100063.60
2018-07-10T19:17:34.437Z,100065.18
2018-07-10T19:20:07.914Z,100067.61
2018-07-10T19:23:10.902Z,100070.90
2018-07-10T19:25:39.480Z,100074.80
2018-07-10T19:28:08.255Z,100077.98
2018-07-10T19:30:45.821Z,100084.87
2018-07-10T19:33:14.403Z,100085.02
2018-07-10T19:35:43.691Z,100088.31
2018-07-10T19:38:12.723Z,100079.24
2018-07-10T19:40:41.262Z,100091.08
2018-07-10T19:43:13.483Z,100090.26
2018-07-10T19:45:43.745Z,100095.67
2018-07-10T19:48:14.426Z,100097.50
2018-07-10T19:50:44.377Z,100088.95
2018-07-10T19:53:13.049Z,100098.02
2018-07-10T19:55:44.603Z,100094.73
2018-07-10T19:58:26.343Z,100098.93
2018-07-10T20:02:03.371Z,100100.63
2018-07-10T20:04:47.076Z,100106.72
2018-07-10T20:07:20.405Z,100114.69
2018-07-10T20:10:11.188Z,100118.52
2018-07-10T20:12:42.817Z,100113.89
2018-07-10T20:15:21.905Z,100118.30
2018-07-10T20:17:59.363Z,100124.58
2018-07-10T20:20:30.062Z,100122.27
2018-07-10T20:23:04.200Z,100123.73
2018-07-10T20:25:42.458Z,100124.09
2018-07-10T20:28:23.421Z,100129.07
2018-07-10T20:33:36.926Z,100123.20
2018-07-10T20:36:06.483Z,100121.34
2018-07-10T20:38:35.337Z,100129.30
2018-07-10T20:41:05.133Z,100135.67
2018-07-10T20:43:39.448Z,100139.48
2018-07-10T20:46:09.801Z,100134.92
2018-07-10T20:48:46.710Z,100141.52
2018-07-10T20:51:15.236Z,100146.12
2018-07-10T20:53:53.805Z,100146.12
2018-07-10T20:56:36.554Z,100153.20
2018-07-10T20:59:12.994Z,100151.59
2018-07-10T21:01:42.390Z,100136.27
2018-07-10T21:04:33.342Z,100145.57
2018-07-10T21:07:04.756Z,100149.95
2018-07-10T21:10:50.418Z,100147.73
2018-07-10T21:13:44.004Z,100149.05
2018-07-10T21:17:17.638Z,100144.65
2018-07-10T21:19:56.581Z,100147.96
2018-07-10T21:24:10.113Z,100155.57
2018-07-10T21:26:42.960Z,100163.73
2018-07-10T21:30:20.748Z,100170.75
2018-07-10T21:32:59.126Z,100171.58
2018-07-10T21:35:32.949Z,100171.05
2018-07-10T21:38:07.034Z,100169.83
2018-07-10T21:41:54.951Z,100175.59
2018-07-10T21:44:39.215Z,100183.02
2018-07-10T21:47:16.781Z,100176.26
2018-07-10T21:49:48.069Z,100181.14
2018-07-10T21:52:16.586Z,100173.48
2018-07-10T21:54:50.082Z,100178.09
2018-07-10T21:57:23.409Z,100179.48
2018-07-10T22:00:06.642Z,100174.37
2018-07-10T22:02:35.090Z,100177.91
2018-07-10T22:05:03.575Z,100178.47
2018-07-10T22:07:32.045Z,100176.08
2018-07-10T22:10:03.121Z,100178.81
2018-07-10T22:12:31.589Z,100181.84
2018-07-10T22:15:00.305Z,100185.14
2018-07-10T22:17:28.893Z,100183.59
2018-07-10T22:19:58.616Z,100185.29
2018-07-10T22:22:30.378Z,100191.04
2018-07-10T22:25:02.098Z,100187.04
2018-07-10T22:27:30.502Z,100196.66
2018-07-10T22:30:05.017Z,100198.59
2018-07-10T22:32:45.214Z,100204.11
2018-07-10T22:35:14.771Z,100199.70
2018-07-10T22:37:43.413Z,100204.09
2018-07-10T22:40:11.885Z,100208.75
2018-07-10T22:42:40.298Z,100211.70
2018-07-10T22:45:08.750Z,100205.16
2018-07-10T22:47:37.458Z,100208.72
2018-07-10T22:50:07.916Z,100201.61
2018-07-10T22:52:39.876Z,100207.14
2018-07-10T22:55:08.766Z,100204.42
2018-07-10T22:57:37.277Z,100208.22
2018-07-10T23:00:05.830Z,100202.21
2018-07-10T23:02:40.702Z,100203.56
2018-07-10T23:05:09.254Z,100204.65
2018-07-10T23:07:37.827Z,100206.09
2018-07-10T23:10:06.374Z,100200.96
2018-07-10T23:12:34.922Z,100200.21
2018-07-10T23:15:03.437Z,100198.06
2018-07-10T23:17:32.127Z,100205.79
2018-07-10T23:20:00.669Z,100198.73
2018-07-10T23:22:40.274Z,100194.67
2018-07-10T23:25:08.847Z,100204.82
2018-07-10T23:27:37.405Z,100196.11
2018-07-10T23:30:05.985Z,100201.58
2018-07-10T23:32:34.528Z,100199.68
2018-07-10T23:35:03.025Z,100199.72
2018-07-10T23:37:31.576Z,100192.61
2018-07-10T23:40:05.413Z,100196.71
2018-07-10T23:42:36.235Z,100198.91
2018-07-10T23:45:13.813Z,100195.38
2018-07-10T23:47:42.706Z,100202.76
2018-07-10T23:50:16.769Z,100201.11
2018-07-10T23:52:56.132Z,100204.65
2018-07-10T23:55:24.688Z,100200.58
2018-07-10T23:57:53.126Z,100198.67
